createdAt,value
2024-03-12T00:05:19.247Z,36.44
2024-03-12T00:10:59.038Z,30.64
2024-03-12T00:16:40.900Z,22.74
2024-03-12T00:22:22.684Z,14.23
2024-03-12T00:28:02.566Z,17.97
2024-03-12T00:33:43.950Z,16.17
2024-03-12T00:39:23.566Z,15.07
2024-03-12T00:45:03.774Z,20.78
2024-03-12T00:50:45.616Z,14.11
2024-03-12T00:56:27.703Z,20.41
2024-03-12T01:05:23.178Z,24.27
2024-03-12T01:11:05.201Z,47.16
2024-03-12T01:16:45.237Z,81.09
2024-03-12T01:22:25.568Z,166.58
2024-03-12T01:28:06.022Z,88.78
2024-03-12T01:33:46.772Z,130.43
2024-03-12T01:39:26.938Z,240.93
2024-03-12T01:45:08.793Z,52.07
2024-03-12T01:50:48.279Z,113.64
2024-03-12T01:56:29.007Z,83.13
2024-03-12T02:02:08.571Z,131.53
2024-03-12T02:07:49.877Z,60.78
2024-03-12T02:13:29.493Z,122.43
2024-03-12T02:19:09.845Z,76.67
2024-03-12T02:24:50.326Z,59.71
2024-03-12T02:30:29.833Z,57.29
2024-03-12T02:36:10.733Z,29.78
2024-03-12T02:41:50.216Z,26.23
2024-03-12T02:47:29.884Z,35.79
2024-03-12T02:53:09.767Z,21.04
2024-03-12T02:58:50.288Z,41.84
2024-03-12T03:04:32.588Z,35.76
2024-03-12T03:10:13.670Z,47.51
2024-03-12T03:15:54.062Z,43.97
2024-03-12T03:21:34.185Z,41.64
2024-03-12T03:27:13.636Z,41.89
2024-03-12T03:32:53.206Z,47.64
2024-03-12T03:38:34.437Z,66.34
2024-03-12T03:44:15.242Z,23.48
2024-03-12T03:49:55.916Z,35.70
2024-03-12T03:55:36.816Z,22.64
2024-03-12T04:05:20.227Z,34.57
2024-03-12T04:11:00.437Z,22.22
2024-03-12T04:16:40.458Z,24.50
2024-03-12T04:22:20.039Z,33.06
2024-03-12T04:27:59.739Z,26.43
2024-03-12T04:33:40.216Z,34.63
2024-03-12T04:39:33.028Z,22.64
2024-03-12T04:45:13.195Z,19.87
2024-03-12T04:50:52.792Z,27.27
2024-03-12T04:56:32.513Z,17.62
2024-03-12T05:02:12.428Z,16.69
2024-03-12T05:07:51.838Z,44.66
2024-03-12T05:13:32.299Z,22.89
2024-03-12T05:19:12.868Z,17.94
2024-03-12T05:24:53.011Z,17.13
2024-03-12T05:30:33.083Z,18.53
2024-03-12T05:36:14.610Z,19.34
2024-03-12T05:42:12.670Z,27.42
2024-03-12T05:48:11.491Z,23.91
2024-03-12T05:53:51.004Z,24.93
2024-03-12T05:59:31.362Z,20.72
2024-03-12T06:05:54.499Z,28.80
2024-03-12T06:11:34.110Z,30.38
2024-03-12T06:17:14.135Z,22.08
2024-03-12T06:22:53.737Z,24.66
2024-03-12T06:28:33.534Z,29.79
2024-03-12T06:34:13.230Z,20.94
2024-03-12T06:39:53.921Z,20.70
2024-03-12T06:45:34.510Z,33.13
2024-03-12T06:51:14.460Z,19.57
2024-03-12T06:56:55.090Z,22.15
2024-03-12T07:02:36.470Z,20.98
2024-03-12T07:08:17.808Z,21.63
2024-03-12T07:13:59.490Z,22.57
2024-03-12T07:19:39.624Z,28.41
2024-03-12T07:25:21.321Z,28.96
2024-03-12T07:31:02.958Z,28.33
2024-03-12T07:36:42.882Z,27.21
2024-03-12T07:42:22.373Z,28.14
2024-03-12T07:48:02.550Z,21.42
2024-03-12T07:53:42.788Z,19.84
2024-03-12T07:59:23.128Z,31.93
2024-03-12T08:05:04.587Z,31.53
2024-03-12T08:10:44.842Z,19.43
2024-03-12T08:16:24.363Z,23.20
2024-03-12T08:22:04.379Z,25.11
2024-03-12T08:27:45.095Z,24.13
2024-03-12T08:33:24.930Z,24.78
2024-03-12T08:39:05.261Z,18.77
2024-03-12T08:44:45.136Z,22.04
2024-03-12T08:50:25.305Z,21.33
2024-03-12T08:56:06.406Z,23.34
2024-03-12T09:01:47.240Z,22.67
2024-03-12T09:07:27.270Z,17.90
2024-03-12T09:13:07.074Z,16.43
2024-03-12T09:18:48.205Z,19.12
2024-03-12T09:24:27.971Z,20.52
2024-03-12T09:30:08.336Z,19.79
2024-03-12T09:35:49.534Z,19.44
2024-03-12T09:41:29.844Z,24.59
2024-03-12T09:47:10.548Z,32.00
2024-03-12T09:52:51.762Z,18.74
2024-03-12T09:58:31.242Z,26.41
2024-03-12T10:05:22.456Z,16.89
2024-03-12T10:11:04.371Z,23.00
2024-03-12T10:16:44.585Z,18.98
2024-03-12T10:22:26.920Z,22.88
2024-03-12T10:28:08.245Z,17.94
2024-03-12T10:33:51.443Z,23.29
2024-03-12T10:39:33.579Z,22.47
2024-03-12T10:45:13.797Z,17.01
2024-03-12T10:50:55.487Z,18.32
2024-03-12T10:56:35.273Z,14.05
2024-03-12T11:02:16.095Z,22.52
2024-03-12T11:07:58.050Z,18.52
2024-03-12T11:13:38.859Z,18.79
2024-03-12T11:19:22.409Z,41.41
2024-03-12T11:25:04.609Z,15.67
2024-03-12T11:30:45.714Z,18.13
2024-03-12T11:36:32.148Z,21.79
2024-03-12T11:42:12.580Z,30.46
2024-03-12T11:47:56.175Z,21.81
2024-03-12T11:53:37.173Z,23.10
2024-03-12T11:59:20.295Z,14.57
2024-03-12T12:05:01.858Z,15.09
2024-03-12T12:10:43.958Z,15.32
2024-03-12T12:16:25.499Z,19.78
2024-03-12T12:22:05.253Z,15.18
2024-03-12T12:27:47.063Z,17.56
2024-03-12T12:33:28.780Z,15.69
2024-03-12T12:39:11.710Z,19.08
2024-03-12T12:44:54.270Z,16.40
2024-03-12T12:50:34.504Z,15.92
2024-03-12T12:56:17.232Z,23.89
2024-03-12T13:05:21.176Z,32.74
2024-03-12T13:11:09.861Z,20.14
2024-03-12T13:16:50.071Z,32.53
2024-03-12T13:22:31.557Z,26.33
2024-03-12T13:28:18.436Z,27.08
2024-03-12T13:33:59.540Z,32.20
2024-03-12T13:39:39.381Z,25.97
2024-03-12T13:45:18.952Z,30.14
2024-03-12T13:51:01.901Z,28.06
2024-03-12T13:56:41.943Z,30.62
2024-03-12T14:02:21.705Z,30.74
2024-03-12T14:08:02.582Z,24.15
2024-03-12T14:13:42.065Z,29.43
2024-03-12T14:19:21.580Z,32.25
2024-03-12T14:25:01.778Z,36.45
2024-03-12T14:30:41.348Z,36.17
2024-03-12T14:36:22.049Z,46.52
2024-03-12T14:42:02.305Z,37.84
2024-03-12T14:47:42.420Z,33.23
2024-03-12T14:53:21.847Z,26.33
2024-03-12T14:59:03.411Z,26.14
2024-03-12T15:04:44.153Z,23.18
2024-03-12T15:10:24.171Z,30.65
2024-03-12T15:16:04.209Z,23.55
2024-03-12T15:21:44.522Z,24.23
2024-03-12T15:27:24.104Z,24.28
2024-03-12T15:33:05.679Z,16.11
2024-03-12T15:38:45.441Z,19.69
2024-03-12T15:44:25.671Z,33.99
2024-03-12T15:50:06.559Z,28.14
2024-03-12T15:55:47.529Z,41.44
2024-03-12T16:05:38.401Z,36.12
2024-03-12T16:11:18.143Z,41.11
2024-03-12T16:16:57.981Z,24.74
2024-03-12T16:22:37.592Z,31.19
2024-03-12T16:28:17.801Z,33.38
2024-03-12T16:33:57.504Z,40.92
2024-03-12T16:39:39.252Z,44.88
2024-03-12T16:45:20.369Z,40.31
2024-03-12T16:51:01.794Z,38.76
2024-03-12T16:56:41.617Z,53.72
2024-03-12T17:02:21.501Z,78.34
2024-03-12T17:08:06.275Z,95.07
2024-03-12T17:13:46.377Z,62.09
2024-03-12T17:19:26.251Z,35.69
2024-03-12T17:25:06.617Z,34.92
2024-03-12T17:30:46.507Z,33.67
2024-03-12T17:36:27.465Z,63.44
2024-03-12T17:47:08.696Z,33.48
2024-03-12T17:52:51.442Z,31.99
2024-03-12T17:58:32.748Z,28.28
2024-03-12T18:04:13.250Z,29.01
2024-03-12T18:09:55.253Z,32.64
2024-03-12T18:15:36.897Z,38.47
2024-03-12T18:21:16.609Z,29.33
2024-03-12T18:26:57.996Z,37.22
2024-03-12T18:32:40.718Z,47.35
2024-03-12T18:38:21.349Z,30.52
2024-03-12T18:44:01.294Z,33.79
2024-03-12T18:49:41.408Z,42.09
2024-03-12T18:55:22.708Z,41.08
2024-03-12T19:05:48.532Z,37.41
2024-03-12T19:11:28.626Z,35.92
2024-03-12T19:17:10.920Z,45.56
2024-03-12T19:22:51.688Z,34.42
2024-03-12T19:28:33.226Z,26.31
2024-03-12T19:34:15.280Z,26.87
2024-03-12T19:39:55.390Z,21.41
2024-03-12T19:45:35.360Z,26.39
2024-03-12T19:51:16.669Z,24.87
2024-03-12T19:56:57.724Z,37.73
2024-03-12T20:02:37.498Z,40.55
2024-03-12T20:08:18.948Z,35.48
2024-03-12T20:13:59.222Z,42.13
2024-03-12T20:19:40.930Z,26.29
2024-03-12T20:25:22.361Z,22.28
2024-03-12T20:31:03.213Z,22.04
2024-03-12T20:36:44.644Z,28.06
2024-03-12T20:42:26.089Z,26.73
2024-03-12T20:48:08.410Z,29.54
2024-03-12T20:53:48.215Z,33.56
2024-03-12T20:59:28.391Z,23.33
2024-03-12T21:05:09.197Z,19.21
2024-03-12T21:10:49.089Z,22.09
2024-03-12T21:16:30.434Z,27.63
2024-03-12T21:22:10.557Z,23.49
2024-03-12T21:27:52.619Z,22.48
2024-03-12T21:33:32.081Z,22.38
2024-03-12T21:39:13.918Z,21.32
2024-03-12T21:44:53.845Z,21.63
2024-03-12T21:50:34.505Z,21.01
2024-03-12T21:56:14.692Z,22.41
2024-03-12T22:05:54.980Z,16.51
2024-03-12T22:11:35.244Z,18.19
2024-03-12T22:17:15.073Z,21.36
2024-03-12T22:22:55.727Z,17.32
2024-03-12T22:28:35.785Z,20.68
2024-03-12T22:34:16.195Z,17.92
2024-03-12T22:39:58.636Z,22.80
2024-03-12T22:45:39.762Z,21.12
2024-03-12T22:51:19.676Z,19.33
2024-03-12T22:56:59.858Z,21.73
2024-03-12T23:02:41.284Z,17.02
2024-03-12T23:08:21.397Z,19.56
2024-03-12T23:14:00.930Z,19.04
2024-03-12T23:19:41.494Z,26.14
2024-03-12T23:25:21.459Z,18.85
2024-03-12T23:31:00.972Z,20.62
2024-03-12T23:36:40.410Z,21.30
2024-03-12T23:42:20.365Z,17.97
2024-03-12T23:48:02.078Z,20.84
2024-03-12T23:53:42.293Z,17.76
2024-03-12T23:59:22.286Z,23.83
